Saint-Stanislas, Canada
Current Conditions -  °F | °C
As of 11:00 AM on Saturday 25 Oct 2014 (Local Time) from CYRJ Reporting Station
Scattered Clouds Scattered Clouds  
Wind Chill: 46°   Ceiling: Unl
Heat Index: 48°   Visibility: 40mi
Dew Point: 32°   Wind: 5mph
Humidity: 54%   Direction: 90°E
Pressure: 29.57"   Gusts: NA
Location:  49°N, 72.17°W
Report Text: CYRJ 251500Z 09004KT 050V130 40SM SCT090 SCT220 09/00 A2957 RMK AC3CI1 SLP017
Loading
Personal Weather Stations






























Interactive Weather Map
Tropical Storm Tracking
New forecast layout! Learn more

10-Day Weather Forecast

Advertisements
Track Severe Weather on mobile